Time;durP1;ratioP1;P1;durP2;ratioP2;P2;SDS_P1;SDS_P2;PMS_P1;PMS_P2;Temp;Humidity;BMP_temperature;BMP_pressure;BME280_temperature;BME280_humidity;BME280_pressure;Samples;Min_cycle;Max_cycle;Signal;HPM_P1;HPM_P2
2024/03/16 00:00:37;;;;;;;1.10;0.80;;;7.70;99.90;;;;;;2075067;28;20268;-70
2024/03/16 00:01:38;;;;;;;1.87;0.60;;;7.70;99.90;;;;;;2076383;28;20847;-71
2024/03/16 00:02:38;;;;;;;0.60;0.60;;;7.70;99.90;;;;;;2075497;28;20229;-71
2024/03/16 00:03:39;;;;;;;1.30;0.70;;;7.80;99.90;;;;;;2076360;28;20232;-71
2024/03/16 00:04:43;;;;;;;0.80;0.50;;;7.80;99.90;;;;;;2074962;28;20235;-71
2024/03/16 00:05:43;;;;;;;1.30;0.80;;;7.90;99.90;;;;;;2073761;28;20250;-71
2024/03/16 00:06:44;;;;;;;0.87;0.53;;;7.80;99.90;;;;;;2073541;28;20713;-73
2024/03/16 00:07:45;;;;;;;1.80;0.80;;;7.90;99.90;;;;;;2065045;28;20306;-73
2024/03/16 00:08:45;;;;;;;1.83;0.60;;;7.90;99.90;;;;;;2077932;28;20231;-71
2024/03/16 00:09:46;;;;;;;1.13;0.60;;;8.00;99.90;;;;;;2073253;28;20221;-72
2024/03/16 00:10:47;;;;;;;2.17;0.90;;;8.00;99.90;;;;;;2065412;28;20229;-73
2024/03/16 00:11:47;;;;;;;1.67;1.13;;;8.00;99.90;;;;;;2072800;28;20225;-73
2024/03/16 00:12:48;;;;;;;1.17;0.57;;;8.10;99.90;;;;;;2077299;28;20238;-74
2024/03/16 00:13:49;;;;;;;1.53;0.97;;;8.00;99.90;;;;;;2060131;28;20289;-72
2024/03/16 00:14:49;;;;;;;1.57;0.43;;;8.00;99.90;;;;;;2065468;28;20224;-71
2024/03/16 00:15:50;;;;;;;1.33;0.60;;;8.10;99.90;;;;;;2073368;28;20319;-72
2024/03/16 00:16:51;;;;;;;1.87;0.60;;;8.10;99.90;;;;;;2059444;28;20321;-72
2024/03/16 00:17:52;;;;;;;1.23;0.60;;;8.00;99.90;;;;;;2067135;28;20240;-72
2024/03/16 00:18:53;;;;;;;1.38;0.60;;;8.10;99.90;;;;;;2073638;28;20230;-73
2024/03/16 00:19:55;;;;;;;2.93;1.10;;;8.10;99.90;;;;;;2074687;28;20332;-73
2024/03/16 00:20:55;;;;;;;0.52;0.50;;;8.10;99.90;;;;;;2075410;28;20283;-74
2024/03/16 00:21:56;;;;;;;1.63;0.80;;;8.00;99.90;;;;;;2074859;28;20303;-73
2024/03/16 00:22:57;;;;;;;3.70;0.70;;;8.00;99.90;;;;;;2073497;28;20253;-73
2024/03/16 00:23:57;;;;;;;1.83;0.67;;;8.00;99.90;;;;;;2073733;28;20717;-71
2024/03/16 00:25:00;;;;;;;1.10;0.60;;;8.00;99.90;;;;;;2074426;28;20233;-71
2024/03/16 00:26:00;;;;;;;1.15;0.77;;;8.00;99.90;;;;;;2067060;28;20244;-71
2024/03/16 00:27:01;;;;;;;2.27;0.93;;;8.00;99.90;;;;;;2058608;28;20677;-71
2024/03/16 00:28:01;;;;;;;1.23;0.80;;;8.00;99.90;;;;;;2074617;28;20280;-70
2024/03/16 00:29:07;;;;;;;1.00;0.80;;;8.10;99.90;;;;;;2074309;28;20196;-72
2024/03/16 00:30:10;;;;;;;1.15;0.63;;;8.10;99.90;;;;;;2073784;28;20177;-71
2024/03/16 00:31:10;;;;;;;1.02;0.50;;;8.10;99.90;;;;;;2066586;28;20192;-71
2024/03/16 00:32:11;;;;;;;1.03;0.70;;;8.10;99.90;;;;;;2059329;28;20285;-72
2024/03/16 00:33:12;;;;;;;2.97;0.90;;;8.10;99.90;;;;;;2066637;28;20182;-72
2024/03/16 00:34:13;;;;;;;0.93;0.60;;;8.10;99.90;;;;;;2073069;28;20176;-72
2024/03/16 00:35:14;;;;;;;3.03;0.80;;;8.10;99.90;;;;;;2082945;28;20187;-72
2024/03/16 00:36:16;;;;;;;0.70;0.70;;;8.10;99.90;;;;;;2086333;28;20183;-71
2024/03/16 00:37:16;;;;;;;1.77;0.80;;;8.10;99.90;;;;;;2080818;28;20679;-73
2024/03/16 00:38:17;;;;;;;0.70;0.67;;;8.10;99.90;;;;;;2074607;28;20188;-72
2024/03/16 00:39:23;;;;;;;2.67;0.70;;;8.20;99.90;;;;;;2079923;28;20199;-73
2024/03/16 00:40:24;;;;;;;2.28;0.57;;;8.20;99.90;;;;;;2065397;28;20719;-73
2024/03/16 00:41:24;;;;;;;0.60;0.60;;;8.20;99.90;;;;;;2069126;28;20229;-72
2024/03/16 00:42:25;;;;;;;0.97;0.60;;;8.20;99.90;;;;;;2075765;28;20611;-72
2024/03/16 00:43:26;;;;;;;0.60;0.50;;;8.20;99.90;;;;;;2075648;28;20228;-72
2024/03/16 00:44:27;;;;;;;2.08;0.80;;;8.30;99.90;;;;;;2073054;28;20808;-73
2024/03/16 00:45:28;;;;;;;1.05;0.50;;;8.30;99.90;;;;;;2087106;28;20668;-73
2024/03/16 00:46:29;;;;;;;2.27;1.00;;;8.30;99.90;;;;;;2080108;28;20232;-73
2024/03/16 00:47:29;;;;;;;0.63;0.60;;;8.30;99.90;;;;;;2075605;28;20930;-73
2024/03/16 00:48:30;;;;;;;1.33;0.70;;;8.40;99.90;;;;;;2081017;28;20259;-72
2024/03/16 00:49:31;;;;;;;1.20;0.60;;;8.40;99.90;;;;;;2089662;28;20235;-73
2024/03/16 00:50:32;;;;;;;1.17;0.70;;;8.50;99.90;;;;;;2076621;28;20236;-73
2024/03/16 00:51:33;;;;;;;1.05;0.80;;;8.40;99.90;;;;;;2070058;28;20271;-73
2024/03/16 00:52:33;;;;;;;0.70;0.70;;;8.40;99.90;;;;;;2069721;28;20287;-72
2024/03/16 00:53:36;;;;;;;4.03;0.67;;;8.50;99.90;;;;;;2076543;28;20238;-72
2024/03/16 00:54:38;;;;;;;0.50;0.50;;;8.50;99.90;;;;;;2075594;28;20229;-72
2024/03/16 00:55:39;;;;;;;2.00;0.68;;;8.50;99.90;;;;;;2075174;28;20230;-71
2024/03/16 00:56:40;;;;;;;2.10;0.90;;;8.50;99.90;;;;;;2075248;28;20246;-72
2024/03/16 00:57:41;;;;;;;4.00;0.93;;;8.50;99.90;;;;;;2077104;28;20247;-71
2024/03/16 00:58:41;;;;;;;2.30;0.60;;;8.50;99.90;;;;;;2074525;28;20239;-70
2024/03/16 00:59:42;;;;;;;2.67;1.00;;;8.50;99.90;;;;;;2076072;28;20315;-72
2024/03/16 01:00:42;;;;;;;2.23;0.80;;;8.50;99.90;;;;;;2076920;28;20717;-72
2024/03/16 01:01:44;;;;;;;0.53;0.43;;;8.50;99.90;;;;;;2076743;28;20324;-73
2024/03/16 01:02:45;;;;;;;1.67;0.70;;;8.50;99.90;;;;;;2075161;28;20248;-71
2024/03/16 01:03:45;;;;;;;1.17;0.80;;;8.50;99.90;;;;;;2059042;28;20229;-72
2024/03/16 01:04:46;;;;;;;1.73;1.00;;;8.40;99.90;;;;;;2055209;28;20254;-72
2024/03/16 01:05:52;;;;;;;1.80;1.10;;;8.40;99.90;;;;;;2069460;28;20249;-72
2024/03/16 01:06:53;;;;;;;1.38;0.70;;;8.30;99.90;;;;;;2078745;28;20243;-71
2024/03/16 01:07:53;;;;;;;3.50;0.80;;;8.30;99.90;;;;;;2065716;28;20323;-72
2024/03/16 01:08:54;;;;;;;0.97;0.80;;;8.20;99.90;;;;;;2067044;28;20328;-72
2024/03/16 01:09:55;;;;;;;1.43;0.70;;;8.20;99.90;;;;;;2068440;28;20229;-72
2024/03/16 01:10:56;;;;;;;0.60;0.60;;;8.20;99.90;;;;;;2075547;28;20287;-72
2024/03/16 01:11:56;;;;;;;0.93;0.90;;;8.10;99.90;;;;;;2076928;28;20275;-71
2024/03/16 01:12:57;;;;;;;0.97;0.93;;;8.10;99.90;;;;;;2089575;28;20345;-72
2024/03/16 01:13:58;;;;;;;1.53;0.60;;;8.20;99.90;;;;;;2079955;28;20699;-72
2024/03/16 01:14:59;;;;;;;1.80;0.70;;;8.10;99.90;;;;;;2080285;28;20657;-72
2024/03/16 01:16:01;;;;;;;0.80;0.60;;;8.20;99.90;;;;;;2073365;28;20236;-72
2024/03/16 01:17:03;;;;;;;2.50;1.05;;;8.20;99.90;;;;;;2074128;28;20214;-71
2024/03/16 01:18:04;;;;;;;1.13;0.90;;;8.30;99.90;;;;;;2083445;28;20212;-71
2024/03/16 01:19:04;;;;;;;0.97;0.80;;;8.30;99.90;;;;;;2062988;28;20238;-72
2024/03/16 01:20:07;;;;;;;2.07;0.80;;;8.40;99.90;;;;;;2066883;28;20197;-72
2024/03/16 01:21:08;;;;;;;2.42;0.90;;;8.40;99.90;;;;;;2075777;28;20211;-73
2024/03/16 01:22:09;;;;;;;0.93;0.70;;;8.40;99.90;;;;;;2069360;28;20204;-72
2024/03/16 01:23:10;;;;;;;1.33;0.70;;;8.40;99.90;;;;;;2076977;28;20217;-72
2024/03/16 01:24:11;;;;;;;1.02;0.70;;;8.30;99.90;;;;;;2076350;28;20214;-71
2024/03/16 01:25:13;;;;;;;1.00;0.57;;;8.30;99.90;;;;;;2075893;28;20189;-72
2024/03/16 01:26:13;;;;;;;1.58;0.60;;;8.20;99.90;;;;;;2076340;28;20216;-72
2024/03/16 01:27:14;;;;;;;2.90;1.10;;;8.20;99.90;;;;;;2075866;28;20239;-72
2024/03/16 01:28:15;;;;;;;2.87;1.13;;;8.20;99.90;;;;;;2080480;28;20199;-72
2024/03/16 01:29:15;;;;;;;1.77;0.60;;;8.20;99.90;;;;;;2071977;28;20189;-72
2024/03/16 01:30:16;;;;;;;2.40;0.60;;;8.20;99.90;;;;;;2066157;28;20244;-72
2024/03/16 01:31:17;;;;;;;0.70;0.70;;;8.20;99.90;;;;;;2081856;28;20188;-72
2024/03/16 01:32:18;;;;;;;1.27;0.60;;;8.10;99.90;;;;;;2081885;28;20275;-73
2024/03/16 01:33:19;;;;;;;0.90;0.70;;;8.10;99.90;;;;;;2070614;28;20211;-71
2024/03/16 01:34:19;;;;;;;1.97;0.83;;;8.00;99.90;;;;;;2071476;28;20311;-70
2024/03/16 01:35:20;;;;;;;2.60;0.80;;;8.00;99.90;;;;;;2064366;28;21106;-71
2024/03/16 01:36:21;;;;;;;0.83;0.80;;;8.00;99.90;;;;;;2071101;28;20328;-71
2024/03/16 01:37:22;;;;;;;1.00;0.70;;;8.00;99.90;;;;;;2077929;28;20258;-72
2024/03/16 01:38:23;;;;;;;1.17;0.80;;;8.00;99.90;;;;;;2076400;28;20271;-72
2024/03/16 01:39:24;;;;;;;3.40;1.00;;;8.10;99.90;;;;;;2067714;28;20372;-71
2024/03/16 01:40:25;;;;;;;1.10;0.70;;;8.00;99.90;;;;;;2067763;28;20352;-71
2024/03/16 01:41:25;;;;;;;1.67;0.80;;;8.00;99.90;;;;;;2080407;28;20321;-71
2024/03/16 01:42:27;;;;;;;1.40;0.83;;;8.00;99.90;;;;;;2081178;28;20240;-71
2024/03/16 01:43:28;;;;;;;1.38;0.82;;;8.00;99.90;;;;;;2073940;28;20247;-71
2024/03/16 01:44:30;;;;;;;1.27;0.70;;;8.00;99.90;;;;;;2069798;28;20236;-71
2024/03/16 01:45:32;;;;;;;1.08;0.70;;;8.00;99.90;;;;;;2061606;28;20237;-71
2024/03/16 01:46:32;;;;;;;1.13;0.63;;;7.90;99.90;;;;;;2079379;28;20311;-72
2024/03/16 01:47:33;;;;;;;2.80;0.80;;;8.00;99.90;;;;;;2076977;28;20228;-72
2024/03/16 01:48:34;;;;;;;0.50;0.50;;;8.00;99.90;;;;;;2067222;28;20236;-72
2024/03/16 01:49:35;;;;;;;2.50;0.70;;;8.00;99.90;;;;;;2075227;28;20261;-72
2024/03/16 01:50:40;;;;;;;1.87;0.70;;;8.00;99.90;;;;;;2076009;28;20274;-72
2024/03/16 01:51:41;;;;;;;1.35;0.60;;;8.00;99.90;;;;;;2080279;28;20274;-71
2024/03/16 01:52:42;;;;;;;3.07;0.70;;;8.00;99.90;;;;;;2073286;28;20233;-72
2024/03/16 01:53:42;;;;;;;0.97;0.77;;;8.10;99.90;;;;;;2066970;28;20281;-72
2024/03/16 01:54:44;;;;;;;0.60;0.60;;;8.20;99.90;;;;;;2067981;28;20313;-71
2024/03/16 01:55:45;;;;;;;1.50;0.70;;;8.30;99.90;;;;;;2084465;28;20236;-70
2024/03/16 01:56:45;;;;;;;1.10;0.90;;;8.30;99.90;;;;;;2082811;28;20231;-71
2024/03/16 01:57:46;;;;;;;2.03;0.77;;;8.30;99.90;;;;;;2066161;28;20475;-71
2024/03/16 01:58:48;;;;;;;2.70;0.77;;;8.40;99.90;;;;;;2066540;28;20282;-72
2024/03/16 01:59:49;;;;;;;2.35;0.90;;;8.40;99.90;;;;;;2074809;28;20232;-71
2024/03/16 02:00:50;;;;;;;1.00;0.70;;;8.40;99.90;;;;;;2066488;28;20749;-72
2024/03/16 02:01:50;;;;;;;1.40;0.80;;;8.30;99.90;;;;;;2066654;28;20237;-72
2024/03/16 02:02:51;;;;;;;1.13;0.80;;;8.30;99.90;;;;;;2074931;28;20323;-72
2024/03/16 02:03:54;;;;;;;1.60;0.63;;;8.30;99.90;;;;;;2075067;28;20307;-72
2024/03/16 02:04:54;;;;;;;1.98;0.95;;;8.30;99.90;;;;;;2073847;28;20236;-72
2024/03/16 02:05:55;;;;;;;1.63;0.80;;;8.20;99.90;;;;;;2073382;28;20738;-72
2024/03/16 02:06:56;;;;;;;1.33;0.80;;;8.30;99.90;;;;;;2073957;28;20319;-72
2024/03/16 02:07:56;;;;;;;1.23;0.60;;;8.20;99.90;;;;;;2074435;28;20247;-72
2024/03/16 02:09:00;;;;;;;1.63;0.80;;;8.20;99.90;;;;;;2067252;28;20285;-73
2024/03/16 02:10:05;;;;;;;1.35;0.80;;;8.10;99.90;;;;;;2074007;28;20234;-71
2024/03/16 02:11:05;;;;;;;2.25;0.85;;;8.20;99.90;;;;;;2073217;28;20228;-70
2024/03/16 02:12:12;;;;;;;1.27;0.97;;;8.20;99.90;;;;;;2066602;28;20213;-71
2024/03/16 02:13:13;;;;;;;1.23;0.80;;;8.20;99.90;;;;;;2068745;28;20228;-72
2024/03/16 02:14:13;;;;;;;1.67;0.90;;;8.20;99.90;;;;;;2082362;28;20184;-72
2024/03/16 02:15:14;;;;;;;0.70;0.70;;;8.20;99.90;;;;;;2088630;28;20915;-72
2024/03/16 02:16:15;;;;;;;1.73;0.93;;;8.20;99.90;;;;;;2080248;28;20200;-72
2024/03/16 02:17:16;;;;;;;1.30;0.70;;;8.20;99.90;;;;;;2068614;28;20188;-72
2024/03/16 02:18:17;;;;;;;0.60;0.60;;;8.20;99.90;;;;;;2078622;28;20272;-73
2024/03/16 02:19:18;;;;;;;0.90;0.70;;;8.20;99.90;;;;;;2089810;28;20183;-71
2024/03/16 02:20:19;;;;;;;1.57;0.87;;;8.20;99.90;;;;;;2070966;28;20599;-73
2024/03/16 02:21:20;;;;;;;0.80;0.80;;;8.10;99.90;;;;;;2074819;28;20231;-72
2024/03/16 02:22:21;;;;;;;2.70;1.00;;;8.00;99.90;;;;;;2073346;28;20223;-72
2024/03/16 02:23:22;;;;;;;5.23;1.43;;;7.90;99.90;;;;;;2075153;28;20242;-73
2024/03/16 02:24:23;;;;;;;1.30;0.70;;;7.90;99.90;;;;;;2075700;28;20303;-72
2024/03/16 02:25:24;;;;;;;3.53;0.80;;;7.70;99.90;;;;;;2074155;28;20469;-72
2024/03/16 02:26:24;;;;;;;4.17;1.53;;;7.60;99.90;;;;;;2075488;28;20233;-71
2024/03/16 02:27:25;;;;;;;3.63;1.40;;;7.50;99.90;;;;;;2072120;28;20233;-72
2024/03/16 02:28:26;;;;;;;2.30;0.97;;;7.50;99.90;;;;;;2074020;28;20216;-71
2024/03/16 02:29:27;;;;;;;4.40;1.33;;;7.60;99.90;;;;;;2075429;28;20231;-72
2024/03/16 02:30:28;;;;;;;2.97;1.52;;;7.60;99.90;;;;;;2082336;28;20255;-71
2024/03/16 02:31:29;;;;;;;3.33;1.15;;;7.50;99.90;;;;;;2066194;28;20236;-71
2024/03/16 02:32:29;;;;;;;3.00;1.30;;;7.40;99.90;;;;;;2066416;28;20253;-71
2024/03/16 02:33:31;;;;;;;5.70;2.23;;;7.40;99.90;;;;;;2084688;28;20231;-71
2024/03/16 02:34:33;;;;;;;1.60;0.80;;;7.40;99.90;;;;;;2074005;28;20255;-70
2024/03/16 02:35:34;;;;;;;3.80;1.17;;;7.40;99.90;;;;;;2074613;28;20236;-70
2024/03/16 02:36:34;;;;;;;2.47;0.70;;;7.40;99.90;;;;;;2078859;28;20236;-70
2024/03/16 02:37:36;;;;;;;1.47;0.70;;;7.50;99.90;;;;;;2080767;28;20236;-72
2024/03/16 02:38:40;;;;;;;1.55;0.70;;;7.40;99.90;;;;;;2076753;28;20315;-71
2024/03/16 02:39:40;;;;;;;1.58;0.90;;;7.40;99.90;;;;;;2083434;28;20259;-71
2024/03/16 02:40:42;;;;;;;0.40;0.40;;;7.40;99.90;;;;;;2084274;28;20232;-72
2024/03/16 02:41:43;;;;;;;2.25;0.90;;;7.40;99.90;;;;;;2072969;28;20692;-71
2024/03/16 02:42:45;;;;;;;1.10;0.90;;;7.40;99.90;;;;;;2074919;28;20236;-71
2024/03/16 02:43:45;;;;;;;0.70;0.50;;;7.40;99.90;;;;;;2065522;28;20240;-72
2024/03/16 02:44:46;;;;;;;2.63;1.00;;;7.40;99.90;;;;;;2066083;28;20253;-71
2024/03/16 02:45:47;;;;;;;1.20;0.77;;;7.40;99.90;;;;;;2071820;28;20259;-72
2024/03/16 02:46:48;;;;;;;1.67;0.70;;;7.40;99.90;;;;;;2065813;28;20222;-72
2024/03/16 02:47:49;;;;;;;1.40;0.60;;;7.40;99.90;;;;;;2061319;28;20244;-70
2024/03/16 02:48:50;;;;;;;1.03;0.77;;;7.40;99.90;;;;;;2066105;28;20678;-71
2024/03/16 02:49:51;;;;;;;1.57;0.60;;;7.40;99.90;;;;;;2061351;28;20364;-71
2024/03/16 02:50:51;;;;;;;3.15;1.17;;;7.40;99.90;;;;;;2065969;28;20239;-71
2024/03/16 02:51:55;;;;;;;5.90;1.13;;;7.50;99.90;;;;;;2074076;28;20224;-71
2024/03/16 02:52:56;;;;;;;2.42;0.68;;;7.40;99.90;;;;;;2065112;28;20233;-71
2024/03/16 02:53:58;;;;;;;1.90;0.60;;;7.40;99.90;;;;;;2074120;28;20264;-71
2024/03/16 02:54:58;;;;;;;1.73;0.90;;;7.30;99.90;;;;;;2072312;28;20325;-70
2024/03/16 02:55:59;;;;;;;0.87;0.73;;;7.30;99.90;;;;;;2057157;28;20234;-71
2024/03/16 02:57:00;;;;;;;2.23;0.60;;;7.30;99.90;;;;;;2060086;28;20229;-70
2024/03/16 02:58:00;;;;;;;3.87;0.80;;;7.30;99.90;;;;;;2073395;28;20252;-70
2024/03/16 02:59:01;;;;;;;2.97;1.00;;;7.30;99.90;;;;;;2072604;28;20234;-70
2024/03/16 03:00:07;;;;;;;2.50;1.20;;;7.20;99.90;;;;;;2074530;28;20191;-72
2024/03/16 03:01:08;;;;;;;1.23;0.73;;;7.20;99.90;;;;;;2075199;28;20602;-71
2024/03/16 03:02:10;;;;;;;2.88;1.20;;;7.10;99.90;;;;;;2074055;28;20187;-70
2024/03/16 03:03:11;;;;;;;2.22;0.98;;;7.20;99.90;;;;;;2070409;28;20184;-70
2024/03/16 03:04:14;;;;;;;3.70;1.30;;;7.20;99.90;;;;;;2067320;28;20189;-71
2024/03/16 03:05:19;;;;;;;3.33;1.27;;;7.20;99.90;;;;;;2067845;28;20216;-70
2024/03/16 03:06:20;;;;;;;6.53;1.23;;;7.30;99.90;;;;;;2060259;28;20353;-71
2024/03/16 03:07:21;;;;;;;2.63;0.80;;;7.30;99.90;;;;;;2073265;28;20393;-70
2024/03/16 03:08:21;;;;;;;1.00;0.80;;;7.30;99.90;;;;;;2074484;28;20286;-70
2024/03/16 03:09:22;;;;;;;3.37;1.10;;;7.40;99.90;;;;;;2075561;28;20232;-71
2024/03/16 03:10:23;;;;;;;2.40;0.87;;;7.40;99.90;;;;;;2070811;28;20228;-70
2024/03/16 03:11:25;;;;;;;2.20;0.70;;;7.40;99.90;;;;;;2073725;28;20315;-71
2024/03/16 03:12:26;;;;;;;1.58;0.73;;;7.40;99.90;;;;;;2073857;28;20343;-71
2024/03/16 03:13:26;;;;;;;2.00;0.80;;;7.30;99.90;;;;;;2073667;28;20232;-71
2024/03/16 03:14:27;;;;;;;3.40;1.03;;;7.40;99.90;;;;;;2074965;28;20589;-72
2024/03/16 03:15:28;;;;;;;1.93;1.13;;;7.40;99.90;;;;;;2073930;28;20232;-72
2024/03/16 03:16:28;;;;;;;2.17;1.13;;;7.40;99.90;;;;;;2087871;28;20335;-70
2024/03/16 03:17:29;;;;;;;2.87;0.73;;;7.40;99.90;;;;;;2080244;28;20228;-70
2024/03/16 03:18:30;;;;;;;2.83;1.07;;;7.40;99.90;;;;;;2073419;28;20283;-71
2024/03/16 03:19:30;;;;;;;3.00;1.10;;;7.40;99.90;;;;;;2068223;28;20238;-70
2024/03/16 03:20:32;;;;;;;3.73;1.00;;;7.50;99.90;;;;;;2068157;28;20694;-69
2024/03/16 03:21:33;;;;;;;5.90;1.00;;;7.50;99.90;;;;;;2073198;28;20227;-71
2024/03/16 03:22:34;;;;;;;1.30;0.80;;;7.60;99.90;;;;;;2071668;28;20256;-70
2024/03/16 03:23:34;;;;;;;3.73;1.10;;;7.50;99.90;;;;;;2073789;28;20252;-70
2024/03/16 03:24:35;;;;;;;3.40;1.00;;;7.50;99.90;;;;;;2074676;28;20283;-71
2024/03/16 03:25:36;;;;;;;3.13;1.20;;;7.50;99.90;;;;;;2067625;28;20705;-71
2024/03/16 03:26:40;;;;;;;2.42;1.05;;;7.60;99.90;;;;;;2068127;28;20748;-71
2024/03/16 03:27:40;;;;;;;2.22;0.85;;;7.50;99.90;;;;;;2061998;28;20255;-70
2024/03/16 03:28:41;;;;;;;2.17;0.83;;;7.50;99.90;;;;;;2066379;28;20229;-71
2024/03/16 03:29:42;;;;;;;4.60;1.10;;;7.60;99.90;;;;;;2064214;28;20225;-71
2024/03/16 03:30:43;;;;;;;3.50;1.13;;;7.60;99.90;;;;;;2073318;28;20243;-71
2024/03/16 03:31:43;;;;;;;5.87;1.40;;;7.60;99.90;;;;;;2073636;28;20371;-71
2024/03/16 03:32:44;;;;;;;1.93;1.00;;;7.60;99.90;;;;;;2059997;28;20234;-71
2024/03/16 03:33:45;;;;;;;2.07;1.10;;;7.60;99.90;;;;;;2065881;28;20229;-69
2024/03/16 03:34:46;;;;;;;2.73;1.00;;;7.60;99.90;;;;;;2065005;28;20220;-70
2024/03/16 03:35:47;;;;;;;1.38;0.95;;;7.60;99.90;;;;;;2080961;28;20224;-70
2024/03/16 03:36:48;;;;;;;2.93;1.20;;;7.60;99.90;;;;;;2076208;28;20229;-71
2024/03/16 03:37:49;;;;;;;2.88;1.15;;;7.60;99.90;;;;;;2053753;28;20312;-71
2024/03/16 03:38:50;;;;;;;2.20;1.10;;;7.60;99.90;;;;;;2058059;28;20256;-71
2024/03/16 03:39:52;;;;;;;6.20;1.17;;;7.60;99.90;;;;;;2069417;28;20263;-71
2024/03/16 03:40:52;;;;;;;1.67;0.93;;;7.70;99.90;;;;;;2073084;28;20290;-71
2024/03/16 03:41:54;;;;;;;4.67;0.90;;;7.60;99.90;;;;;;2072921;28;20601;-71
2024/03/16 03:43:00;;;;;;;1.35;1.15;;;7.60;99.90;;;;;;2072640;28;20236;-71
2024/03/16 03:44:09;;;;;;;3.25;1.02;;;7.70;99.90;;;;;;2068653;28;20319;-71
2024/03/16 03:45:27;;;;;;;3.20;1.20;;;7.70;99.90;;;;;;2071937;28;20225;-70
2024/03/16 03:46:49;;;;;;;2.15;1.13;;;7.80;99.90;;;;;;2070594;28;20601;-71
2024/03/16 03:48:02;;;;;;;2.65;1.20;;;7.80;99.90;;;;;;2070327;28;20241;-71
2024/03/16 03:49:14;;;;;;;3.80;1.20;;;7.80;99.90;;;;;;2067822;28;20595;-70
2024/03/16 03:50:26;;;;;;;1.65;1.00;;;7.90;99.90;;;;;;2065909;28;20200;-72
2024/03/16 03:51:27;;;;;;;3.17;1.05;;;7.90;99.90;;;;;;2070758;28;20232;-72
2024/03/16 03:52:27;;;;;;;3.40;1.23;;;7.90;99.90;;;;;;2075772;28;20231;-72
2024/03/16 03:53:28;;;;;;;2.67;1.10;;;8.00;99.90;;;;;;2070416;28;20232;-72
2024/03/16 03:54:29;;;;;;;1.50;0.83;;;8.00;99.90;;;;;;2071723;28;20868;-72
2024/03/16 03:55:30;;;;;;;3.77;0.90;;;7.90;99.90;;;;;;2073063;28;20260;-71
2024/03/16 03:56:31;;;;;;;5.07;1.02;;;8.00;99.90;;;;;;2072915;28;20240;-71
2024/03/16 03:57:31;;;;;;;4.30;1.67;;;8.00;99.90;;;;;;2073750;28;20316;-71
2024/03/16 03:58:32;;;;;;;3.10;1.03;;;8.00;99.90;;;;;;2071330;28;20653;-71
2024/03/16 03:59:33;;;;;;;1.70;1.00;;;8.00;99.90;;;;;;2074087;28;20217;-72
2024/03/16 04:00:33;;;;;;;2.50;1.20;;;7.90;99.90;;;;;;2073835;28;20576;-71
2024/03/16 04:01:34;;;;;;;2.20;0.90;;;8.00;99.90;;;;;;2072779;28;20323;-72
2024/03/16 04:02:35;;;;;;;1.60;1.00;;;7.90;99.90;;;;;;2067858;28;20300;-71
2024/03/16 04:03:35;;;;;;;1.87;0.90;;;8.00;99.90;;;;;;2067398;28;20261;-69
2024/03/16 04:04:36;;;;;;;2.87;1.20;;;8.00;99.90;;;;;;2063338;28;20275;-70
2024/03/16 04:05:37;;;;;;;4.27;1.10;;;8.00;99.90;;;;;;2078612;28;20231;-70
2024/03/16 04:06:38;;;;;;;3.47;1.30;;;8.00;99.90;;;;;;2079942;28;20219;-71
2024/03/16 04:07:39;;;;;;;2.40;1.10;;;8.00;99.90;;;;;;2075371;28;20224;-71
2024/03/16 04:08:39;;;;;;;2.60;1.40;;;8.00;99.90;;;;;;2074186;28;20256;-71
2024/03/16 04:09:44;;;;;;;1.63;0.83;;;8.10;99.90;;;;;;2074725;28;20224;-71
2024/03/16 04:10:45;;;;;;;2.10;1.00;;;8.10;99.90;;;;;;2078471;28;20339;-71
2024/03/16 04:11:45;;;;;;;3.27;1.57;;;8.20;99.90;;;;;;2079078;28;20220;-69
2024/03/16 04:12:46;;;;;;;2.93;1.20;;;8.20;99.90;;;;;;2071937;28;20229;-71
2024/03/16 04:13:47;;;;;;;2.70;1.30;;;8.10;99.90;;;;;;2065027;28;20230;-71
2024/03/16 04:14:47;;;;;;;5.23;1.10;;;8.10;99.90;;;;;;2056944;28;20700;-70
2024/03/16 04:15:49;;;;;;;5.00;1.73;;;8.20;99.90;;;;;;2065337;28;20225;-69
2024/03/16 04:16:49;;;;;;;3.72;1.50;;;8.10;99.90;;;;;;2081432;28;20755;-69
2024/03/16 04:17:50;;;;;;;2.63;1.20;;;8.10;99.90;;;;;;2081025;28;20242;-71
2024/03/16 04:18:52;;;;;;;4.93;1.60;;;8.20;99.90;;;;;;2080915;28;20334;-71
2024/03/16 04:19:53;;;;;;;2.97;1.20;;;8.20;99.90;;;;;;2074029;28;20386;-71
2024/03/16 04:20:53;;;;;;;5.63;1.43;;;8.20;99.90;;;;;;2072731;28;20236;-72
2024/03/16 04:21:54;;;;;;;7.60;1.70;;;8.20;99.90;;;;;;2058595;28;20252;-71
2024/03/16 04:22:55;;;;;;;3.77;1.40;;;8.20;99.90;;;;;;2072385;28;20299;-72
2024/03/16 04:23:55;;;;;;;5.57;1.13;;;8.30;99.90;;;;;;2080576;28;20301;-72
2024/03/16 04:24:56;;;;;;;5.57;1.53;;;8.30;99.90;;;;;;2068780;28;20239;-71
2024/03/16 04:25:57;;;;;;;5.17;1.53;;;8.40;99.90;;;;;;2067005;28;20226;-72
2024/03/16 04:26:57;;;;;;;5.30;1.30;;;8.40;99.90;;;;;;2066457;28;20288;-72
2024/03/16 04:27:58;;;;;;;1.97;1.13;;;8.30;99.90;;;;;;2059516;28;20291;-72
2024/03/16 04:28:59;;;;;;;4.90;1.30;;;8.30;99.90;;;;;;2059080;28;20238;-72
2024/03/16 04:29:59;;;;;;;4.73;1.30;;;8.30;99.90;;;;;;2065921;28;20241;-72
2024/03/16 04:31:00;;;;;;;5.43;1.70;;;8.30;99.90;;;;;;2061001;28;20233;-73
2024/03/16 04:32:01;;;;;;;4.43;0.90;;;8.30;99.90;;;;;;2059854;28;20291;-71
2024/03/16 04:33:01;;;;;;;2.83;1.17;;;8.20;99.90;;;;;;2068772;28;20190;-71
2024/03/16 04:34:02;;;;;;;2.43;1.00;;;8.20;99.90;;;;;;2075445;28;20255;-72
2024/03/16 04:35:08;;;;;;;2.70;1.20;;;8.20;99.90;;;;;;2078589;28;20189;-72
2024/03/16 04:36:09;;;;;;;5.18;1.35;;;8.30;99.90;;;;;;2082828;28;20193;-72
2024/03/16 04:37:10;;;;;;;2.03;1.20;;;8.30;99.90;;;;;;2080716;28;20192;-72
2024/03/16 04:38:12;;;;;;;5.33;1.67;;;8.30;99.90;;;;;;2070588;28;20189;-72
2024/03/16 04:39:13;;;;;;;2.97;1.10;;;8.30;99.90;;;;;;2065187;28;20183;-72
2024/03/16 04:40:14;;;;;;;3.93;1.30;;;8.30;99.90;;;;;;2060511;28;20575;-72
2024/03/16 04:41:15;;;;;;;4.20;1.20;;;8.30;99.90;;;;;;2074601;28;20193;-72
2024/03/16 04:42:15;;;;;;;3.30;1.17;;;8.30;99.90;;;;;;2073435;28;20181;-72
2024/03/16 04:43:16;;;;;;;5.13;1.37;;;8.30;99.90;;;;;;2066442;28;20190;-71
2024/03/16 04:44:17;;;;;;;4.13;1.40;;;8.30;99.90;;;;;;2057454;28;20679;-71
2024/03/16 04:45:17;;;;;;;9.73;1.37;;;8.30;99.90;;;;;;2061105;28;20205;-71
2024/03/16 04:46:18;;;;;;;2.13;1.00;;;8.30;99.90;;;;;;2071949;28;20690;-69
2024/03/16 04:47:19;;;;;;;4.88;1.25;;;8.30;99.90;;;;;;2070556;28;20217;-70
2024/03/16 04:48:20;;;;;;;4.63;1.00;;;8.40;99.90;;;;;;2073330;28;20278;-71
2024/03/16 04:49:21;;;;;;;7.13;1.50;;;8.30;99.90;;;;;;2073291;28;20239;-70
2024/03/16 04:50:22;;;;;;;5.10;1.60;;;8.40;99.90;;;;;;2071445;28;20235;-71
2024/03/16 04:51:22;;;;;;;3.28;1.20;;;8.40;99.90;;;;;;2063698;28;20878;-71
2024/03/16 04:52:23;;;;;;;3.20;1.50;;;8.30;99.90;;;;;;2070599;28;20232;-71
2024/03/16 04:53:24;;;;;;;6.70;1.37;;;8.40;99.90;;;;;;2072620;28;20267;-72
2024/03/16 04:54:25;;;;;;;4.47;1.20;;;8.40;99.90;;;;;;2073329;28;20233;-71
2024/03/16 04:55:25;;;;;;;4.27;1.47;;;8.40;99.90;;;;;;2072727;28;20243;-71
2024/03/16 04:56:26;;;;;;;2.83;1.00;;;8.40;99.90;;;;;;2063453;28;20222;-71
2024/03/16 04:57:27;;;;;;;2.73;1.53;;;8.40;99.90;;;;;;2057197;28;20249;-71
2024/03/16 04:58:27;;;;;;;4.43;1.20;;;8.30;99.90;;;;;;2073970;28;20260;-70
2024/03/16 04:59:28;;;;;;;2.83;1.00;;;8.30;99.90;;;;;;2071715;28;20314;-71
2024/03/16 05:00:29;;;;;;;2.83;1.20;;;8.30;99.90;;;;;;2072077;28;20283;-72
2024/03/16 05:01:29;;;;;;;1.63;1.00;;;8.30;99.90;;;;;;2072030;28;20878;-72
2024/03/16 05:02:30;;;;;;;3.60;1.30;;;8.30;99.90;;;;;;2080615;28;20234;-71
2024/03/16 05:03:31;;;;;;;4.23;1.17;;;8.30;99.90;;;;;;2071847;28;20318;-70
2024/03/16 05:04:32;;;;;;;2.27;1.13;;;8.30;99.90;;;;;;2074017;28;20658;-71
2024/03/16 05:05:33;;;;;;;5.80;1.83;;;8.40;99.90;;;;;;2069013;28;20347;-70
2024/03/16 05:06:34;;;;;;;3.77;1.30;;;8.40;99.90;;;;;;2075465;28;20236;-71
2024/03/16 05:07:35;;;;;;;3.35;1.40;;;8.40;99.90;;;;;;2070998;28;20295;-71
2024/03/16 05:08:36;;;;;;;6.43;1.30;;;8.40;99.90;;;;;;2072708;28;20243;-72
2024/03/16 05:09:36;;;;;;;2.50;0.97;;;8.50;99.90;;;;;;2071495;28;20670;-69
2024/03/16 05:10:37;;;;;;;2.97;1.00;;;8.50;99.90;;;;;;2071461;28;20299;-70
2024/03/16 05:11:38;;;;;;;2.30;1.20;;;8.40;99.90;;;;;;2078709;28;20275;-71
2024/03/16 05:12:39;;;;;;;2.87;1.10;;;8.40;99.90;;;;;;2088746;28;20232;-70
2024/03/16 05:13:39;;;;;;;3.27;1.47;;;8.30;99.90;;;;;;2076015;28;20775;-71
2024/03/16 05:14:40;;;;;;;5.43;1.37;;;8.20;99.90;;;;;;2072545;28;20572;-71
2024/03/16 05:15:41;;;;;;;3.10;1.50;;;8.30;99.90;;;;;;2073123;28;20229;-70
2024/03/16 05:16:41;;;;;;;2.17;1.13;;;8.30;99.90;;;;;;2072089;28;20753;-71
2024/03/16 05:17:42;;;;;;;2.53;1.20;;;8.30;99.90;;;;;;2077599;28;20228;-71
2024/03/16 05:18:42;;;;;;;7.57;1.30;;;8.40;99.90;;;;;;2079309;28;20624;-70
2024/03/16 05:19:44;;;;;;;4.77;1.33;;;8.40;99.90;;;;;;2073019;28;20228;-71
2024/03/16 05:20:46;;;;;;;4.25;1.40;;;8.40;99.90;;;;;;2079249;28;20236;-70
2024/03/16 05:21:47;;;;;;;3.47;1.27;;;8.50;99.90;;;;;;2072630;28;20233;-71
2024/03/16 05:22:48;;;;;;;4.87;1.50;;;8.50;99.90;;;;;;2068885;28;20241;-72
2024/03/16 05:23:49;;;;;;;5.97;1.60;;;8.50;99.90;;;;;;2073621;28;20746;-71